sensor_id;sensor_type;location;lat;lon;timestamp;pressure;altitude;pressure_sealevel;temperature;humidity
46714;BME280;32445;51.376;10.874;2023-02-10T00:00:26;101164.28;;;-0.57;50.74
46714;BME280;32445;51.376;10.874;2023-02-10T00:03:26;101160.06;;;-0.57;50.71
46714;BME280;32445;51.376;10.874;2023-02-10T00:06:27;101166.97;;;-0.54;50.88
46714;BME280;32445;51.376;10.874;2023-02-10T00:09:27;101161.94;;;-0.53;50.87
46714;BME280;32445;51.376;10.874;2023-02-10T00:12:27;101165.28;;;-0.54;51.13
46714;BME280;32445;51.376;10.874;2023-02-10T00:15:28;101172.00;;;-0.56;51.43
46714;BME280;32445;51.376;10.874;2023-02-10T00:18:28;101175.50;;;-0.54;51.47
46714;BME280;32445;51.376;10.874;2023-02-10T00:21:29;101174.69;;;-0.53;51.50
46714;BME280;32445;51.376;10.874;2023-02-10T00:24:29;101179.88;;;-0.51;51.38
46714;BME280;32445;51.376;10.874;2023-02-10T00:27:30;101172.50;;;-0.45;51.29
46714;BME280;32445;51.376;10.874;2023-02-10T00:30:31;101171.09;;;-0.38;51.16
46714;BME280;32445;51.376;10.874;2023-02-10T00:33:31;101172.09;;;-0.35;51.21
46714;BME280;32445;51.376;10.874;2023-02-10T00:36:31;101179.09;;;-0.30;51.09
46714;BME280;32445;51.376;10.874;2023-02-10T00:39:32;101179.16;;;-0.29;51.02
46714;BME280;32445;51.376;10.874;2023-02-10T00:42:32;101169.09;;;-0.26;50.98
46714;BME280;32445;51.376;10.874;2023-02-10T00:45:33;101177.81;;;-0.21;51.03
46714;BME280;32445;51.376;10.874;2023-02-10T00:48:33;101177.88;;;-0.19;50.97
46714;BME280;32445;51.376;10.874;2023-02-10T00:51:34;101177.88;;;-0.19;51.66
46714;BME280;32445;51.376;10.874;2023-02-10T00:54:34;101191.44;;;-0.20;51.89
46714;BME280;32445;51.376;10.874;2023-02-10T00:57:35;101185.59;;;-0.18;51.95
46714;BME280;32445;51.376;10.874;2023-02-10T01:00:35;101190.78;;;-0.16;51.82
46714;BME280;32445;51.376;10.874;2023-02-10T01:03:35;101183.19;;;-0.14;52.19
46714;BME280;32445;51.376;10.874;2023-02-10T01:06:36;101179.91;;;-0.12;51.79
46714;BME280;32445;51.376;10.874;2023-02-10T01:09:36;101179.25;;;-0.08;51.68
46714;BME280;32445;51.376;10.874;2023-02-10T01:12:36;101187.03;;;-0.05;52.32
46714;BME280;32445;51.376;10.874;2023-02-10T01:15:44;101193.03;;;-0.04;52.07
46714;BME280;32445;51.376;10.874;2023-02-10T01:18:45;101196.44;;;-0.04;52.36
46714;BME280;32445;51.376;10.874;2023-02-10T01:21:45;101199.84;;;-0.03;52.25
46714;BME280;32445;51.376;10.874;2023-02-10T01:24:46;101189.81;;;0.00;52.63
46714;BME280;32445;51.376;10.874;2023-02-10T01:27:46;101198.47;;;0.04;52.44
46714;BME280;32445;51.376;10.874;2023-02-10T01:30:46;101191.72;;;0.06;52.59
46714;BME280;32445;51.376;10.874;2023-02-10T01:33:50;101197.91;;;0.11;52.78
46714;BME280;32445;51.376;10.874;2023-02-10T01:36:50;101203.16;;;0.14;52.53
46714;BME280;32445;51.376;10.874;2023-02-10T01:39:51;101199.13;;;0.19;52.71
46714;BME280;32445;51.376;10.874;2023-02-10T01:42:51;101192.41;;;0.21;52.43
46714;BME280;32445;51.376;10.874;2023-02-10T01:45:51;101190.72;;;0.22;52.87
46714;BME280;32445;51.376;10.874;2023-02-10T01:48:52;101198.41;;;0.22;53.41
46714;BME280;32445;51.376;10.874;2023-02-10T01:55:05;101190.88;;;0.25;53.46
46714;BME280;32445;51.376;10.874;2023-02-10T01:58:09;101199.50;;;0.28;53.88
46714;BME280;32445;51.376;10.874;2023-02-10T02:01:10;101198.78;;;0.31;54.60
46714;BME280;32445;51.376;10.874;2023-02-10T02:04:11;101198.03;;;0.33;54.82
46714;BME280;32445;51.376;10.874;2023-02-10T02:07:11;101187.09;;;0.36;54.55
46714;BME280;32445;51.376;10.874;2023-02-10T02:10:12;101189.75;;;0.39;55.24
46714;BME280;32445;51.376;10.874;2023-02-10T02:13:21;101192.44;;;0.42;55.57
46714;BME280;32445;51.376;10.874;2023-02-10T02:20:12;101185.91;;;0.49;54.99
46714;BME280;32445;51.376;10.874;2023-02-10T02:34:46;101179.69;;;0.63;54.91
46714;BME280;32445;51.376;10.874;2023-02-10T02:37:46;101183.34;;;0.70;54.48
46714;BME280;32445;51.376;10.874;2023-02-10T02:40:47;101188.47;;;0.70;54.93
46714;BME280;32445;51.376;10.874;2023-02-10T02:43:47;101186.06;;;0.73;55.33
46714;BME280;32445;51.376;10.874;2023-02-10T02:47:07;101185.06;;;0.69;55.92
46714;BME280;32445;51.376;10.874;2023-02-10T02:50:27;101188.53;;;0.72;56.42
46714;BME280;32445;51.376;10.874;2023-02-10T02:57:27;101197.09;;;0.72;58.18
46714;BME280;32445;51.376;10.874;2023-02-10T03:00:33;101191.41;;;0.79;59.10
46714;BME280;32445;51.376;10.874;2023-02-10T03:03:35;101191.59;;;0.84;60.30
46714;BME280;32445;51.376;10.874;2023-02-10T03:06:36;101194.34;;;0.89;61.25
46714;BME280;32445;51.376;10.874;2023-02-10T03:09:36;101198.88;;;0.96;61.93
46714;BME280;32445;51.376;10.874;2023-02-10T03:12:37;101205.00;;;0.99;62.46
46714;BME280;32445;51.376;10.874;2023-02-10T03:15:37;101204.31;;;1.03;62.68
46714;BME280;32445;51.376;10.874;2023-02-10T03:18:38;101206.25;;;1.09;63.36
46714;BME280;32445;51.376;10.874;2023-02-10T03:21:38;101201.31;;;1.14;63.08
46714;BME280;32445;51.376;10.874;2023-02-10T03:24:38;101209.16;;;1.18;62.94
46714;BME280;32445;51.376;10.874;2023-02-10T03:27:39;101210.28;;;1.25;63.24
46714;BME280;32445;51.376;10.874;2023-02-10T03:30:39;101208.75;;;1.30;63.40
46714;BME280;32445;51.376;10.874;2023-02-10T03:33:46;101216.63;;;1.35;62.57
46714;BME280;32445;51.376;10.874;2023-02-10T03:36:46;101224.53;;;1.41;62.04
46714;BME280;32445;51.376;10.874;2023-02-10T03:39:47;101225.66;;;1.48;62.13
46714;BME280;32445;51.376;10.874;2023-02-10T03:42:47;101231.00;;;1.54;61.70
46714;BME280;32445;51.376;10.874;2023-02-10T03:45:48;101236.28;;;1.59;61.11
46714;BME280;32445;51.376;10.874;2023-02-10T03:48:48;101245.03;;;1.64;60.79
46714;BME280;32445;51.376;10.874;2023-02-10T03:51:49;101245.16;;;1.67;61.06
46714;BME280;32445;51.376;10.874;2023-02-10T03:54:49;101245.19;;;1.68;61.61
46714;BME280;32445;51.376;10.874;2023-02-10T03:57:49;101247.81;;;1.70;61.97
46714;BME280;32445;51.376;10.874;2023-02-10T04:00:50;101254.75;;;1.72;62.38
46714;BME280;32445;51.376;10.874;2023-02-10T04:03:50;101254.81;;;1.74;63.06
46714;BME280;32445;51.376;10.874;2023-02-10T04:06:50;101253.16;;;1.76;62.94
46714;BME280;32445;51.376;10.874;2023-02-10T04:09:51;101253.22;;;1.78;63.00
46714;BME280;32445;51.376;10.874;2023-02-10T04:12:51;101253.34;;;1.81;63.31
46714;BME280;32445;51.376;10.874;2023-02-10T04:16:03;101260.19;;;1.82;63.66
46714;BME280;32445;51.376;10.874;2023-02-10T04:19:04;101257.91;;;1.88;63.05
46714;BME280;32445;51.376;10.874;2023-02-10T04:22:04;101259.81;;;1.94;63.07
46714;BME280;32445;51.376;10.874;2023-02-10T04:25:05;101259.03;;;1.96;62.64
46714;BME280;32445;51.376;10.874;2023-02-10T04:28:05;101265.22;;;2.01;62.30
46714;BME280;32445;51.376;10.874;2023-02-10T04:31:06;101261.13;;;2.06;62.07
46714;BME280;32445;51.376;10.874;2023-02-10T04:34:06;101264.78;;;2.13;61.70
46714;BME280;32445;51.376;10.874;2023-02-10T04:37:06;101264.97;;;2.18;61.31
46714;BME280;32445;51.376;10.874;2023-02-10T04:40:07;101275.44;;;2.24;60.82
46714;BME280;32445;51.376;10.874;2023-02-10T04:43:09;101268.72;;;2.28;60.86
46714;BME280;32445;51.376;10.874;2023-02-10T04:46:09;101278.31;;;2.33;60.57
46714;BME280;32445;51.376;10.874;2023-02-10T04:49:10;101269.88;;;2.36;60.27
46714;BME280;32445;51.376;10.874;2023-02-10T04:52:11;101272.47;;;2.37;60.00
46714;BME280;32445;51.376;10.874;2023-02-10T04:55:11;101272.53;;;2.39;60.50
46714;BME280;32445;51.376;10.874;2023-02-10T04:58:11;101270.03;;;2.40;60.04
46714;BME280;32445;51.376;10.874;2023-02-10T05:01:12;101270.91;;;2.41;60.67
46714;BME280;32445;51.376;10.874;2023-02-10T05:04:12;101264.91;;;2.40;60.66
46714;BME280;32445;51.376;10.874;2023-02-10T05:07:13;101259.06;;;2.45;60.92
46714;BME280;32445;51.376;10.874;2023-02-10T05:10:13;101248.81;;;2.45;60.44
46714;BME280;32445;51.376;10.874;2023-02-10T05:13:13;101261.69;;;2.46;60.91
46714;BME280;32445;51.376;10.874;2023-02-10T05:16:15;101255.69;;;2.46;60.95
46714;BME280;32445;51.376;10.874;2023-02-10T05:19:16;101260.91;;;2.49;60.99
46714;BME280;32445;51.376;10.874;2023-02-10T05:22:16;101267.00;;;2.51;61.22
46714;BME280;32445;51.376;10.874;2023-02-10T05:25:16;101263.53;;;2.50;60.97
46714;BME280;32445;51.376;10.874;2023-02-10T05:28:17;101268.66;;;2.50;60.88
46714;BME280;32445;51.376;10.874;2023-02-10T05:31:17;101270.50;;;2.54;60.69
46714;BME280;32445;51.376;10.874;2023-02-10T05:34:17;101267.16;;;2.55;61.46
46714;BME280;32445;51.376;10.874;2023-02-10T05:37:18;101275.00;;;2.60;61.07
46714;BME280;32445;51.376;10.874;2023-02-10T05:40:18;101274.22;;;2.63;60.87
46714;BME280;32445;51.376;10.874;2023-02-10T05:43:18;101280.22;;;2.63;61.38
46714;BME280;32445;51.376;10.874;2023-02-10T05:46:19;101282.78;;;2.63;60.78
46714;BME280;32445;51.376;10.874;2023-02-10T05:49:19;101280.31;;;2.66;60.75
46714;BME280;32445;51.376;10.874;2023-02-10T05:52:20;101289.09;;;2.73;60.76
46714;BME280;32445;51.376;10.874;2023-02-10T05:55:20;101282.31;;;2.75;60.36
46714;BME280;32445;51.376;10.874;2023-02-10T05:58:21;101279.94;;;2.80;60.46
46714;BME280;32445;51.376;10.874;2023-02-10T06:01:21;101274.16;;;2.85;59.71
46714;BME280;32445;51.376;10.874;2023-02-10T06:04:22;101268.28;;;2.89;59.70
46714;BME280;32445;51.376;10.874;2023-02-10T06:07:22;101280.34;;;2.92;59.05
46714;BME280;32445;51.376;10.874;2023-02-10T06:10:23;101279.56;;;2.94;58.90
46714;BME280;32445;51.376;10.874;2023-02-10T06:13:23;101283.75;;;2.91;59.39
46714;BME280;32445;51.376;10.874;2023-02-10T06:16:25;101285.41;;;2.90;59.30
46714;BME280;32445;51.376;10.874;2023-02-10T06:19:25;101290.50;;;2.89;58.96
46714;BME280;32445;51.376;10.874;2023-02-10T06:22:25;101303.38;;;2.90;58.71
46714;BME280;32445;51.376;10.874;2023-02-10T06:25:26;101305.06;;;2.90;59.45
46714;BME280;32445;51.376;10.874;2023-02-10T06:28:27;101293.13;;;2.90;58.72
46714;BME280;32445;51.376;10.874;2023-02-10T06:31:28;101296.50;;;2.89;59.07
46714;BME280;32445;51.376;10.874;2023-02-10T06:34:28;101282.81;;;2.89;58.83
46714;BME280;32445;51.376;10.874;2023-02-10T06:37:28;101285.41;;;2.90;58.53
46714;BME280;32445;51.376;10.874;2023-02-10T06:40:29;101287.97;;;2.90;57.91
46714;BME280;32445;51.376;10.874;2023-02-10T06:43:29;101289.69;;;2.90;57.77
46714;BME280;32445;51.376;10.874;2023-02-10T06:46:30;101286.19;;;2.88;57.31
46714;BME280;32445;51.376;10.874;2023-02-10T06:49:30;101300.66;;;2.86;57.34
46714;BME280;32445;51.376;10.874;2023-02-10T06:52:31;101298.81;;;2.82;56.67
46714;BME280;32445;51.376;10.874;2023-02-10T06:55:31;101308.03;;;2.76;57.84
46714;BME280;32445;51.376;10.874;2023-02-10T06:58:32;101317.38;;;2.74;57.40
46714;BME280;32445;51.376;10.874;2023-02-10T07:01:32;101324.97;;;2.71;57.14
46714;BME280;32445;51.376;10.874;2023-02-10T07:04:33;101320.69;;;2.72;57.83
46714;BME280;32445;51.376;10.874;2023-02-10T07:07:34;101336.19;;;2.75;57.32
46714;BME280;32445;51.376;10.874;2023-02-10T07:10:35;101327.69;;;2.76;57.51
46714;BME280;32445;51.376;10.874;2023-02-10T07:13:35;101332.09;;;2.80;57.09
46714;BME280;32445;51.376;10.874;2023-02-10T07:16:35;101337.28;;;2.82;57.00
46714;BME280;32445;51.376;10.874;2023-02-10T07:19:36;101334.75;;;2.83;57.14
46714;BME280;32445;51.376;10.874;2023-02-10T07:22:36;101343.44;;;2.87;56.64
46714;BME280;32445;51.376;10.874;2023-02-10T07:25:37;101342.59;;;2.88;57.15
46714;BME280;32445;51.376;10.874;2023-02-10T07:28:37;101359.75;;;2.89;56.96
46714;BME280;32445;51.376;10.874;2023-02-10T07:31:37;101356.31;;;2.88;57.06
46714;BME280;32445;51.376;10.874;2023-02-10T07:34:38;101367.44;;;2.89;57.02
46714;BME280;32445;51.376;10.874;2023-02-10T07:37:40;101372.63;;;2.90;57.28
46714;BME280;32445;51.376;10.874;2023-02-10T07:40:41;101359.81;;;2.90;57.27
46714;BME280;32445;51.376;10.874;2023-02-10T07:43:41;101361.50;;;2.90;57.06
46714;BME280;32445;51.376;10.874;2023-02-10T07:46:42;101364.06;;;2.90;57.12
46714;BME280;32445;51.376;10.874;2023-02-10T07:49:42;101373.38;;;2.88;57.39
46714;BME280;32445;51.376;10.874;2023-02-10T07:52:42;101366.59;;;2.88;57.38
46714;BME280;32445;51.376;10.874;2023-02-10T07:55:43;101376.94;;;2.91;57.28
46714;BME280;32445;51.376;10.874;2023-02-10T07:58:44;101372.63;;;2.90;57.55
46714;BME280;32445;51.376;10.874;2023-02-10T08:01:44;101377.66;;;2.87;57.97
46714;BME280;32445;51.376;10.874;2023-02-10T08:04:45;101378.47;;;2.86;58.56
46714;BME280;32445;51.376;10.874;2023-02-10T08:07:45;101377.56;;;2.84;58.86
46714;BME280;32445;51.376;10.874;2023-02-10T08:10:46;101387.75;;;2.83;59.09
46714;BME280;32445;51.376;10.874;2023-02-10T08:13:46;101383.53;;;2.85;58.77
46714;BME280;32445;51.376;10.874;2023-02-10T08:16:46;101381.13;;;2.89;58.94
46714;BME280;32445;51.376;10.874;2023-02-10T08:19:52;101380.28;;;2.89;59.58
46714;BME280;32445;51.376;10.874;2023-02-10T08:22:56;101387.97;;;2.89;59.64
46714;BME280;32445;51.376;10.874;2023-02-10T08:25:58;101393.31;;;2.95;59.72
46714;BME280;32445;51.376;10.874;2023-02-10T08:29:02;101380.63;;;2.98;59.75
46714;BME280;32445;51.376;10.874;2023-02-10T08:32:02;101378.16;;;3.01;59.71
46714;BME280;32445;51.376;10.874;2023-02-10T08:35:03;101374.94;;;3.07;59.73
46714;BME280;32445;51.376;10.874;2023-02-10T08:38:04;101381.06;;;3.12;60.05
46714;BME280;32445;51.376;10.874;2023-02-10T08:41:04;101381.25;;;3.17;59.47
46714;BME280;32445;51.376;10.874;2023-02-10T08:44:06;101381.34;;;3.20;59.81
46714;BME280;32445;51.376;10.874;2023-02-10T08:47:06;101376.38;;;3.24;60.18
46714;BME280;32445;51.376;10.874;2023-02-10T08:50:12;101382.53;;;3.29;60.03
46714;BME280;32445;51.376;10.874;2023-02-10T08:53:12;101386.16;;;3.36;60.15
46714;BME280;32445;51.376;10.874;2023-02-10T08:56:15;101382.94;;;3.42;59.83
46714;BME280;32445;51.376;10.874;2023-02-10T08:59:16;101372.81;;;3.46;59.55
46714;BME280;32445;51.376;10.874;2023-02-10T09:02:16;101369.56;;;3.52;59.43
46714;BME280;32445;51.376;10.874;2023-02-10T09:05:16;101380.06;;;3.58;58.96
46714;BME280;32445;51.376;10.874;2023-02-10T09:08:19;101381.13;;;3.65;59.50
46714;BME280;32445;51.376;10.874;2023-02-10T09:11:21;101386.44;;;3.70;59.10
46714;BME280;32445;51.376;10.874;2023-02-10T09:14:23;101390.00;;;3.75;59.12
46714;BME280;32445;51.376;10.874;2023-02-10T09:17:23;101402.97;;;3.79;59.05
46714;BME280;32445;51.376;10.874;2023-02-10T09:20:24;101395.50;;;3.86;58.93
46714;BME280;32445;51.376;10.874;2023-02-10T09:23:24;101407.66;;;3.91;58.37
46714;BME280;32445;51.376;10.874;2023-02-10T09:26:25;101412.00;;;3.94;58.82
46714;BME280;32445;51.376;10.874;2023-02-10T09:29:26;101410.38;;;3.96;58.42
46714;BME280;32445;51.376;10.874;2023-02-10T09:32:26;101401.97;;;4.02;58.48
46714;BME280;32445;51.376;10.874;2023-02-10T09:35:27;101403.66;;;4.01;58.77
46714;BME280;32445;51.376;10.874;2023-02-10T09:38:27;101403.78;;;4.04;58.47
46714;BME280;32445;51.376;10.874;2023-02-10T09:44:36;101406.66;;;4.15;58.13
46714;BME280;32445;51.376;10.874;2023-02-10T09:47:43;101403.41;;;4.21;58.08
46714;BME280;32445;51.376;10.874;2023-02-10T09:51:04;101396.75;;;4.27;58.01
46714;BME280;32445;51.376;10.874;2023-02-10T09:54:09;101402.13;;;4.35;57.92
46714;BME280;32445;51.376;10.874;2023-02-10T09:57:22;101403.13;;;4.40;57.69
46714;BME280;32445;51.376;10.874;2023-02-10T10:00:36;101405.78;;;4.43;57.74
46714;BME280;32445;51.376;10.874;2023-02-10T10:03:43;101411.13;;;4.49;57.94
46714;BME280;32445;51.376;10.874;2023-02-10T10:06:45;101402.66;;;4.54;57.91
46714;BME280;32445;51.376;10.874;2023-02-10T10:09:56;101409.72;;;4.61;57.43
46714;BME280;32445;51.376;10.874;2023-02-10T10:12:59;101402.25;;;4.68;57.17
46714;BME280;32445;51.376;10.874;2023-02-10T10:16:17;101397.22;;;4.73;57.19
46714;BME280;32445;51.376;10.874;2023-02-10T10:19:58;101397.47;;;4.82;57.09
46714;BME280;32445;51.376;10.874;2023-02-10T10:32:48;101391.13;;;5.33;57.22
46714;BME280;32445;51.376;10.874;2023-02-10T10:35:52;101385.44;;;5.47;56.55
46714;BME280;32445;51.376;10.874;2023-02-10T10:38:58;101385.75;;;5.59;56.45
46714;BME280;32445;51.376;10.874;2023-02-10T10:42:02;101379.19;;;5.72;55.75
46714;BME280;32445;51.376;10.874;2023-02-10T10:45:20;101375.13;;;5.82;55.67
46714;BME280;32445;51.376;10.874;2023-02-10T10:48:25;101370.25;;;5.96;55.44
46714;BME280;32445;51.376;10.874;2023-02-10T10:51:27;101369.59;;;6.03;54.62
46714;BME280;32445;51.376;10.874;2023-02-10T10:54:28;101368.13;;;6.14;54.77
46714;BME280;32445;51.376;10.874;2023-02-10T10:57:32;101360.72;;;6.30;54.70
46714;BME280;32445;51.376;10.874;2023-02-10T11:00:33;101367.00;;;6.43;54.36
46714;BME280;32445;51.376;10.874;2023-02-10T11:03:34;101364.66;;;6.53;54.29
46714;BME280;32445;51.376;10.874;2023-02-10T11:06:36;101362.31;;;6.66;53.90
46714;BME280;32445;51.376;10.874;2023-02-10T11:09:41;101355.59;;;6.74;53.63
46714;BME280;32445;51.376;10.874;2023-02-10T11:12:45;101354.94;;;6.84;53.89
46714;BME280;32445;51.376;10.874;2023-02-10T11:15:46;101350.88;;;6.97;52.94
46714;BME280;32445;51.376;10.874;2023-02-10T11:18:59;101349.31;;;7.07;52.78
46714;BME280;32445;51.376;10.874;2023-02-10T11:22:00;101351.25;;;7.19;52.50
46714;BME280;32445;51.376;10.874;2023-02-10T11:25:17;101340.19;;;7.27;52.40
46714;BME280;32445;51.376;10.874;2023-02-10T11:28:26;101342.88;;;7.32;51.18
46714;BME280;32445;51.376;10.874;2023-02-10T11:31:32;101337.78;;;7.37;52.06
46714;BME280;32445;51.376;10.874;2023-02-10T11:34:42;101336.13;;;7.42;51.50
46714;BME280;32445;51.376;10.874;2023-02-10T11:37:53;101337.19;;;7.55;52.52
46714;BME280;32445;51.376;10.874;2023-02-10T11:41:02;101342.59;;;7.69;51.54
46714;BME280;32445;51.376;10.874;2023-02-10T11:44:22;101343.41;;;7.68;51.15
46714;BME280;32445;51.376;10.874;2023-02-10T11:47:27;101350.53;;;7.81;51.65
46714;BME280;32445;51.376;10.874;2023-02-10T11:50:31;101353.25;;;7.90;52.20
46714;BME280;32445;51.376;10.874;2023-02-10T11:53:34;101342.91;;;7.90;51.29
46714;BME280;32445;51.376;10.874;2023-02-10T12:06:10;101341.13;;;7.88;50.81
46714;BME280;32445;51.376;10.874;2023-02-10T12:09:29;101334.97;;;7.78;50.11
46714;BME280;32445;51.376;10.874;2023-02-10T12:12:46;101344.47;;;7.80;50.74
46714;BME280;32445;51.376;10.874;2023-02-10T12:19:03;101341.16;;;7.89;51.34
46714;BME280;32445;51.376;10.874;2023-02-10T12:32:34;101347.94;;;7.81;50.16
46714;BME280;32445;51.376;10.874;2023-02-10T12:35:55;101344.38;;;7.73;50.49
46714;BME280;32445;51.376;10.874;2023-02-10T12:45:30;101349.78;;;7.90;51.10
46714;BME280;32445;51.376;10.874;2023-02-10T12:48:41;101348.19;;;7.98;51.10
46714;BME280;32445;51.376;10.874;2023-02-10T12:52:05;101337.78;;;7.95;50.08
46714;BME280;32445;51.376;10.874;2023-02-10T12:58:16;101340.66;;;8.17;50.68
46714;BME280;32445;51.376;10.874;2023-02-10T13:01:31;101342.38;;;8.16;50.06
46714;BME280;32445;51.376;10.874;2023-02-10T13:04:49;101336.44;;;8.22;50.23
46714;BME280;32445;51.376;10.874;2023-02-10T13:07:53;101335.72;;;8.34;50.83
46714;BME280;32445;51.376;10.874;2023-02-10T13:11:02;101330.63;;;8.38;50.59
46714;BME280;32445;51.376;10.874;2023-02-10T13:14:23;101332.31;;;8.38;49.93
46714;BME280;32445;51.376;10.874;2023-02-10T13:17:27;101332.53;;;8.53;50.64
46714;BME280;32445;51.376;10.874;2023-02-10T13:23:47;101324.03;;;8.65;51.08
46714;BME280;32445;51.376;10.874;2023-02-10T13:27:20;101326.66;;;8.70;50.19
46714;BME280;32445;51.376;10.874;2023-02-10T13:30:56;101317.25;;;8.76;50.52
46714;BME280;32445;51.376;10.874;2023-02-10T13:34:11;101315.69;;;8.95;51.86
46714;BME280;32445;51.376;10.874;2023-02-10T13:37:26;101312.28;;;8.99;50.20
46714;BME280;32445;51.376;10.874;2023-02-10T13:40:34;101314.09;;;9.07;50.46
46714;BME280;32445;51.376;10.874;2023-02-10T13:43:45;101311.53;;;9.10;50.99
46714;BME280;32445;51.376;10.874;2023-02-10T13:46:53;101312.44;;;9.13;50.74
46714;BME280;32445;51.376;10.874;2023-02-10T13:53:04;101302.88;;;9.09;50.48
46714;BME280;32445;51.376;10.874;2023-02-10T14:02:21;101312.47;;;9.21;50.23
46714;BME280;32445;51.376;10.874;2023-02-10T14:05:31;101307.28;;;9.20;49.81
46714;BME280;32445;51.376;10.874;2023-02-10T14:08:37;101299.59;;;9.29;50.28
46714;BME280;32445;51.376;10.874;2023-02-10T14:11:40;101297.91;;;9.35;51.06
46714;BME280;32445;51.376;10.874;2023-02-10T14:14:42;101291.88;;;9.38;50.42
46714;BME280;32445;51.376;10.874;2023-02-10T14:17:55;101286.66;;;9.32;49.64
46714;BME280;32445;51.376;10.874;2023-02-10T14:21:03;101273.72;;;9.33;49.51
46714;BME280;32445;51.376;10.874;2023-02-10T14:24:11;101277.25;;;9.42;49.71
46714;BME280;32445;51.376;10.874;2023-02-10T14:27:14;101268.63;;;9.43;48.23
46714;BME280;32445;51.376;10.874;2023-02-10T14:30:22;101277.16;;;9.35;48.09
46714;BME280;32445;51.376;10.874;2023-02-10T14:33:30;101273.75;;;9.40;49.37
46714;BME280;32445;51.376;10.874;2023-02-10T14:36:31;101270.31;;;9.39;49.97
46714;BME280;32445;51.376;10.874;2023-02-10T14:39:31;101260.84;;;9.43;49.51
46714;BME280;32445;51.376;10.874;2023-02-10T14:42:33;101270.41;;;9.53;49.81
46714;BME280;32445;51.376;10.874;2023-02-10T14:45:33;101282.56;;;9.65;50.27
46714;BME280;32445;51.376;10.874;2023-02-10T14:48:39;101269.56;;;9.57;48.79
46714;BME280;32445;51.376;10.874;2023-02-10T14:51:42;101264.38;;;9.57;48.68
46714;BME280;32445;51.376;10.874;2023-02-10T14:54:43;101271.16;;;9.41;47.57
46714;BME280;32445;51.376;10.874;2023-02-10T14:57:43;101262.50;;;9.36;47.63
46714;BME280;32445;51.376;10.874;2023-02-10T15:03:55;101263.34;;;9.32;48.55
46714;BME280;32445;51.376;10.874;2023-02-10T15:06:58;101255.59;;;9.40;49.08
46714;BME280;32445;51.376;10.874;2023-02-10T15:13:24;101240.94;;;9.39;47.92
46714;BME280;32445;51.376;10.874;2023-02-10T15:16:26;101240.88;;;9.31;48.86
46714;BME280;32445;51.376;10.874;2023-02-10T15:19:27;101229.66;;;9.35;49.36
46714;BME280;32445;51.376;10.874;2023-02-10T15:23:10;101236.56;;;9.33;48.46
46714;BME280;32445;51.376;10.874;2023-02-10T15:26:13;101237.41;;;9.29;48.62
46714;BME280;32445;51.376;10.874;2023-02-10T15:29:17;101234.78;;;9.24;48.35
46714;BME280;32445;51.376;10.874;2023-02-10T15:32:20;101231.25;;;9.14;49.09
46714;BME280;32445;51.376;10.874;2023-02-10T15:35:21;101235.44;;;8.97;48.40
46714;BME280;32445;51.376;10.874;2023-02-10T15:38:22;101231.13;;;8.96;49.01
46714;BME280;32445;51.376;10.874;2023-02-10T15:41:43;101233.56;;;8.80;48.54
46714;BME280;32445;51.376;10.874;2023-02-10T15:44:44;101245.56;;;8.71;49.07
46714;BME280;32445;51.376;10.874;2023-02-10T15:48:08;101248.94;;;8.63;48.37
46714;BME280;32445;51.376;10.874;2023-02-10T15:51:27;101244.56;;;8.58;48.43
46714;BME280;32445;51.376;10.874;2023-02-10T15:54:27;101250.66;;;8.61;49.32
46714;BME280;32445;51.376;10.874;2023-02-10T15:57:29;101262.63;;;8.50;49.59
46714;BME280;32445;51.376;10.874;2023-02-10T16:00:33;101257.28;;;8.39;48.89
46714;BME280;32445;51.376;10.874;2023-02-10T16:03:33;101242.47;;;8.23;49.20
46714;BME280;32445;51.376;10.874;2023-02-10T16:06:37;101244.91;;;8.12;48.96
46714;BME280;32445;51.376;10.874;2023-02-10T16:09:38;101248.25;;;8.05;48.42
46714;BME280;32445;51.376;10.874;2023-02-10T16:12:38;101248.16;;;7.95;48.53
46714;BME280;32445;51.376;10.874;2023-02-10T16:15:39;101246.25;;;7.82;48.78
46714;BME280;32445;51.376;10.874;2023-02-10T16:18:40;101242.56;;;7.65;49.25
46714;BME280;32445;51.376;10.874;2023-02-10T16:21:41;101243.28;;;7.53;49.08
46714;BME280;32445;51.376;10.874;2023-02-10T16:24:42;101238.88;;;7.45;48.92
46714;BME280;32445;51.376;10.874;2023-02-10T16:27:42;101234.63;;;7.51;48.89
46714;BME280;32445;51.376;10.874;2023-02-10T16:30:43;101230.31;;;7.48;48.24
46714;BME280;32445;51.376;10.874;2023-02-10T16:33:45;101226.78;;;7.44;48.16
46714;BME280;32445;51.376;10.874;2023-02-10T16:36:45;101221.56;;;7.38;48.58
46714;BME280;32445;51.376;10.874;2023-02-10T16:39:47;101207.66;;;7.32;48.40
46714;BME280;32445;51.376;10.874;2023-02-10T16:42:48;101204.16;;;7.25;48.17
46714;BME280;32445;51.376;10.874;2023-02-10T16:45:48;101215.94;;;7.09;48.64
46714;BME280;32445;51.376;10.874;2023-02-10T16:48:48;101212.28;;;6.96;49.37
46714;BME280;32445;51.376;10.874;2023-02-10T16:51:49;101223.25;;;6.81;49.27
46714;BME280;32445;51.376;10.874;2023-02-10T16:54:50;101223.00;;;6.69;49.15
46714;BME280;32445;51.376;10.874;2023-02-10T16:57:51;101216.75;;;6.54;49.05
46714;BME280;32445;51.376;10.874;2023-02-10T17:00:53;101216.44;;;6.37;49.49
46714;BME280;32445;51.376;10.874;2023-02-10T17:03:54;101225.88;;;6.37;49.67
46714;BME280;32445;51.376;10.874;2023-02-10T17:06:54;101237.75;;;6.27;49.63
46714;BME280;32445;51.376;10.874;2023-02-10T17:09:55;101240.94;;;6.15;49.88
46714;BME280;32445;51.376;10.874;2023-02-10T17:12:55;101254.72;;;6.16;49.98
46714;BME280;32445;51.376;10.874;2023-02-10T17:15:55;101248.69;;;6.15;50.10
46714;BME280;32445;51.376;10.874;2023-02-10T17:18:56;101248.75;;;6.18;49.99
46714;BME280;32445;51.376;10.874;2023-02-10T17:21:56;101247.03;;;6.19;49.67
46714;BME280;32445;51.376;10.874;2023-02-10T17:24:57;101251.22;;;6.12;49.90